Time;durP1;ratioP1;P1;durP2;ratioP2;P2;SDS_P1;SDS_P2;PMS_P1;PMS_P2;Temp;Humidity;BMP_temperature;BMP_pressure;BME280_temperature;BME280_humidity;BME280_pressure;Samples;Min_cycle;Max_cycle;Signal;HPM_P1;HPM_P2
2021/12/15 01:21:28;;;;;;;45.17;18.13;;;;;;;3.33;100.00;96782.34;4901222;29;20684;-83
2021/12/15 04:52:59;;;;;;;;;;;;;;;;;;;;;
2021/12/15 05:03:06;;;;;;;;;;;;;;;;;;;;;
2021/12/15 05:08:55;;;;;;;28.17;15.93;;;;;;;3.18;100.00;96824.19;4615303;31;20249;-83
2021/12/15 06:11:07;;;;;;;24.23;14.87;;;;;;;3.21;100.00;96869.41;4909915;29;20215;-84
2021/12/15 06:13:38;;;;;;;26.33;15.50;;;;;;;3.14;100.00;96861.13;4887548;29;20188;-84
2021/12/15 06:16:10;;;;;;;28.23;16.53;;;;;;;3.12;100.00;96865.50;4868062;29;20666;-84
2021/12/15 06:19:04;;;;;;;27.53;15.43;;;;;;;3.12;100.00;96865.50;4883600;29;20602;-82
2021/12/15 06:21:31;;;;;;;30.70;16.90;;;;;;;3.12;100.00;96870.66;4879508;29;20198;-81
2021/12/15 06:24:05;;;;;;;28.70;17.30;;;;;;;3.14;100.00;96871.41;4882636;29;20190;-83
2021/12/15 06:26:39;;;;;;;30.77;17.43;;;;;;;3.13;100.00;96873.13;4883596;29;20189;-83
2021/12/15 06:29:13;;;;;;;31.27;17.07;;;;;;;3.15;100.00;96874.81;4883450;29;20204;-83
2021/12/15 06:31:48;;;;;;;30.83;17.67;;;;;;;3.22;100.00;96876.19;4881997;29;20659;-84
2021/12/15 06:34:24;;;;;;;32.07;18.77;;;;;;;3.20;100.00;96873.69;4882388;29;20213;-84
2021/12/15 06:37:03;;;;;;;30.20;18.43;;;;;;;3.18;100.00;96879.78;4883075;29;20222;-81
2021/12/15 06:40:08;;;;;;;31.97;18.30;;;;;;;3.17;100.00;96873.00;4882585;29;20180;-85
2021/12/15 06:43:01;;;;;;;32.33;18.47;;;;;;;3.18;100.00;96879.78;4880567;29;20601;-85
2021/12/15 06:46:17;;;;;;;38.57;20.20;;;;;;;3.15;100.00;96878.19;4882489;29;20565;-83
2021/12/15 07:37:46;;;;;;;27.60;17.67;;;;;;;3.26;100.00;96940.16;4713948;30;20202;-81
2021/12/15 07:47:49;;;;;;;;;;;;;;;;;;;;;
2021/12/15 07:51:03;;;;;;;30.37;17.57;;;;;;;3.27;100.00;96946.13;4758037;30;20297;-81
2021/12/15 08:50:08;;;;;;;29.40;18.57;;;;;;;3.54;100.00;96980.00;5081928;23;20725;-80
2021/12/15 08:52:34;;;;;;;30.63;18.70;;;;;;;3.63;100.00;96985.56;4882022;29;20232;-82
2021/12/15 08:54:59;;;;;;;30.17;19.80;;;;;;;3.56;100.00;96981.59;4880887;29;20254;-81
2021/12/15 09:14:31;;;;;;;25.93;16.13;;;;;;;3.59;100.00;96991.72;4842970;29;20768;-84
2021/12/15 09:16:58;;;;;;;21.90;14.60;;;;;;;3.47;100.00;96994.88;4813668;29;20197;-80
2021/12/15 10:41:57;;;;;;;10.03;7.27;;;;;;;3.73;96.43;96987.72;4715324;30;20362;-85
2021/12/15 10:45:09;;;;;;;9.47;7.13;;;;;;;3.74;96.60;96991.94;4708108;30;20243;-86
2021/12/15 10:57:51;;;;;;;9.17;6.80;;;;;;;3.76;95.80;96983.25;4861582;29;20221;-87
2021/12/15 11:00:19;;;;;;;7.83;6.70;;;;;;;3.74;95.87;96981.66;4845364;29;20708;-86
2021/12/15 11:02:45;;;;;;;7.70;6.43;;;;;;;3.71;95.53;96977.50;4843911;29;20771;-88
2021/12/15 11:05:49;;;;;;;8.17;6.47;;;;;;;3.74;95.46;96981.66;4855791;29;20209;-87
2021/12/15 11:09:17;;;;;;;8.50;6.43;;;;;;;3.79;95.18;96977.13;4864527;29;20233;-87
2021/12/15 11:18:36;;;;;;;10.57;7.87;;;;;;;3.70;94.73;96971.50;4808032;29;20292;-87
2021/12/15 11:35:18;;;;;;;10.37;8.77;;;;;;;3.89;94.16;96968.13;4860530;29;20232;-84
2021/12/15 11:45:24;;;;;;;12.73;9.07;;;;;;;3.81;95.42;96962.50;4825037;23;20242;-87
2021/12/15 11:48:26;;;;;;;11.63;9.30;;;;;;;3.74;95.13;96963.69;4821058;29;20281;-86
2021/12/15 12:04:39;;;;;;;11.83;8.80;;;;;;;3.99;93.03;96951.34;4758706;30;20372;-89
2021/12/15 13:06:14;;;;;;;10.50;8.30;;;;;;;3.84;93.47;96916.91;5709218;23;20238;-85
2021/12/15 13:57:33;;;;;;;13.13;10.70;;;;;;;3.29;94.58;96903.25;4898252;29;20653;-82
2021/12/15 14:00:20;;;;;;;;;;;;;;;;;;;;;
2021/12/15 14:03:10;;;;;;;12.33;9.63;;;;;;;3.32;95.01;96909.06;4897618;29;20204;-83
2021/12/15 14:05:46;;;;;;;14.43;11.07;;;;;;;3.27;94.51;96910.16;4867657;29;20295;-85
2021/12/15 14:18:35;;;;;;;13.53;9.93;;;;;;;3.14;95.09;96933.00;5125037;23;20236;-84
2021/12/15 14:21:38;;;;;;;13.53;9.70;;;;;;;3.00;94.41;96932.78;4844177;29;20207;-82
2021/12/15 14:24:50;;;;;;;;;;;;;;;;;;;;;
2021/12/15 14:37:57;;;;;;;15.43;10.10;;;;;;;3.04;95.90;96950.56;4779533;30;20245;-87
2021/12/15 14:40:32;;;;;;;13.53;9.70;;;;;;;2.98;95.28;96955.13;4786239;30;20307;-85
2021/12/15 14:57:14;;;;;;;16.83;11.53;;;;;;;2.88;96.45;96969.25;4929467;23;20238;-80
2021/12/15 14:59:52;;;;;;;16.87;11.07;;;;;;;2.87;96.45;96968.41;4871592;29;20191;-85
2021/12/15 15:02:26;;;;;;;15.77;12.13;;;;;;;2.89;96.01;96976.88;4868700;29;20282;-86
2021/12/15 15:09:06;;;;;;;16.07;10.97;;;;;;;2.85;96.51;96970.22;4871297;29;20250;-84
2021/12/15 15:12:31;;;;;;;16.50;11.60;;;;;;;2.80;95.92;96967.00;4870377;29;20624;-86
2021/12/15 15:39:30;;;;;;;18.90;12.40;;;;;;;2.66;96.82;96964.22;4647594;30;20726;-81
2021/12/15 15:42:15;;;;;;;32.47;20.57;;;;;;;2.73;96.82;96965.59;4633046;30;20292;-85
2021/12/15 15:44:58;;;;;;;23.90;14.97;;;;;;;2.63;96.94;96954.88;4619617;30;20605;-85
2021/12/15 15:50:44;;;;;;;21.23;14.43;;;;;;;2.57;97.22;96955.16;4685597;30;20349;-83
2021/12/15 15:53:15;;;;;;;18.20;12.73;;;;;;;2.64;97.12;96960.84;4684708;30;20192;-85
2021/12/15 15:55:44;;;;;;;14.53;10.87;;;;;;;2.60;97.18;96967.03;4700112;30;20225;-84
2021/12/15 15:58:29;;;;;;;19.13;13.07;;;;;;;2.58;97.91;96981.66;4721587;30;20205;-86
2021/12/15 16:01:12;;;;;;;18.63;13.30;;;;;;;2.52;97.37;96977.59;4740152;29;20250;-85
2021/12/15 16:03:59;;;;;;;17.67;12.60;;;;;;;2.53;97.57;96980.09;4744923;30;20593;-85
2021/12/15 16:06:36;;;;;;;21.53;13.87;;;;;;;2.48;97.94;96971.78;4765632;30;20199;-85
2021/12/15 16:13:18;;;;;;;;;;;;;;;;;;;;;
2021/12/15 16:27:10;;;;;;;18.17;12.20;;;;;;;2.52;97.52;96992.97;5234217;23;20242;-86
2021/12/15 16:30:34;;;;;;;;;;;;;;;;;;;;;
2021/12/15 16:33:57;;;;;;;;;;;;;;;;;;;;;
2021/12/15 16:44:54;;;;;;;;;;;;;;;;;;;;;
2021/12/15 16:52:16;;;;;;;;;;;;;;;;;;;;;
2021/12/15 16:55:00;;;;;;;17.20;12.83;;;;;;;2.52;97.79;97011.75;4684833;30;20234;-84
2021/12/15 16:57:28;;;;;;;21.27;14.73;;;;;;;2.42;98.73;97022.47;4662714;30;20231;-77
2021/12/15 17:00:02;;;;;;;22.40;15.33;;;;;;;2.44;98.73;97013.81;4662559;30;20213;-85
2021/12/15 17:02:33;;;;;;;19.80;14.33;;;;;;;2.42;98.57;97027.59;4650609;30;20209;-85
2021/12/15 17:05:20;;;;;;;19.83;14.00;;;;;;;2.49;98.08;97024.72;4651121;30;20591;-85
2021/12/15 17:07:49;;;;;;;23.43;15.10;;;;;;;2.48;98.49;97023.06;4666337;30;20239;-80
2021/12/15 17:10:18;;;;;;;21.77;14.67;;;;;;;2.44;98.69;97036.06;4662835;30;20208;-85
2021/12/15 17:12:59;;;;;;;23.50;15.83;;;;;;;2.47;98.68;97033.34;4649366;30;20348;-83
2021/12/15 17:15:41;;;;;;;23.60;14.93;;;;;;;2.45;98.67;97035.97;4663489;30;20737;-83
2021/12/15 17:18:25;;;;;;;18.00;14.27;;;;;;;2.47;98.73;97038.47;4732470;30;20321;-85
2021/12/15 17:20:52;;;;;;;22.13;15.00;;;;;;;2.48;98.57;97032.47;4742880;30;20213;-86
2021/12/15 17:23:30;;;;;;;23.10;15.40;;;;;;;2.44;98.97;97036.88;4753490;30;20855;-85
2021/12/15 17:26:08;;;;;;;27.37;19.43;;;;;;;2.46;98.88;97045.34;4851166;29;20218;-84
2021/12/15 17:28:36;;;;;;;30.17;22.37;;;;;;;2.46;98.87;97042.78;4884353;29;20211;-84
2021/12/15 17:31:04;;;;;;;25.17;19.17;;;;;;;2.49;98.85;97029.84;4868723;29;20199;-84
2021/12/15 17:33:39;;;;;;;26.90;17.67;;;;;;;2.48;98.96;97045.31;4899952;29;20226;-85
2021/12/15 17:36:45;;;;;;;29.67;18.57;;;;;;;2.45;98.72;97040.28;4883316;29;20273;-83
2021/12/15 17:39:22;;;;;;;25.27;18.30;;;;;;;2.45;99.26;97047.97;4883371;29;20183;-85
2021/12/15 17:42:17;;;;;;;24.23;16.67;;;;;;;2.43;99.06;97049.78;4898321;29;20653;-85
2021/12/15 17:44:47;;;;;;;25.00;16.17;;;;;;;2.45;98.96;97046.25;4896673;29;20225;-85
2021/12/15 17:47:15;;;;;;;30.73;18.10;;;;;;;2.46;98.98;97047.91;4898686;29;20190;-82
2021/12/15 17:50:38;;;;;;;25.90;17.83;;;;;;;2.45;99.66;97048.81;4900471;29;20231;-88
2021/12/15 17:53:10;;;;;;;35.07;25.63;;;;;;;2.44;99.56;97049.69;4844136;29;20239;-84
2021/12/15 17:55:45;;;;;;;35.53;24.30;;;;;;;2.50;99.82;97058.88;4845516;29;20228;-84
2021/12/15 17:58:17;;;;;;;41.83;29.60;;;;;;;2.51;99.53;97053.69;4844905;29;20185;-86
2021/12/15 18:00:50;;;;;;;26.87;18.47;;;;;;;2.44;99.43;97056.56;4844744;29;20637;-83
2021/12/15 18:03:21;;;;;;;28.67;20.40;;;;;;;2.48;99.66;97053.00;4843283;29;20204;-84
2021/12/15 18:05:47;;;;;;;24.67;16.87;;;;;;;2.45;99.52;97053.94;4843975;29;20697;-83
2021/12/15 18:08:13;;;;;;;21.33;15.20;;;;;;;2.45;99.23;97061.63;4843678;29;20261;-86
2021/12/15 18:10:49;;;;;;;26.23;16.70;;;;;;;2.45;99.59;97068.47;4843427;29;20196;-85
2021/12/15 18:13:21;;;;;;;23.73;17.03;;;;;;;2.45;99.45;97066.75;4858968;29;20192;-84
2021/12/15 18:15:47;;;;;;;38.60;25.37;;;;;;;2.47;99.46;97066.69;4844193;29;20212;-84
2021/12/15 18:18:14;;;;;;;36.70;23.97;;;;;;;2.49;99.55;97064.91;4870576;29;20199;-83
2021/12/15 18:20:40;;;;;;;32.00;22.00;;;;;;;2.41;99.32;97070.34;4896945;29;20587;-85
2021/12/15 18:23:06;;;;;;;34.87;23.60;;;;;;;2.41;99.70;97060.09;4866433;29;20202;-82
2021/12/15 18:25:31;;;;;;;32.20;21.97;;;;;;;2.46;99.66;97060.72;4898405;29;20563;-84
2021/12/15 18:28:00;;;;;;;31.00;21.80;;;;;;;2.42;99.42;97071.19;4897726;29;20198;-86
2021/12/15 18:30:30;;;;;;;31.33;20.37;;;;;;;2.42;99.39;97064.31;4882146;29;20194;-85
2021/12/15 18:32:57;;;;;;;43.07;28.33;;;;;;;2.49;99.19;97073.44;4897743;29;20202;-81
2021/12/15 18:35:22;;;;;;;38.03;27.23;;;;;;;2.48;99.17;97079.47;4897440;29;20226;-84
2021/12/15 18:37:48;;;;;;;32.67;23.70;;;;;;;2.46;99.89;97078.69;4897118;29;20277;-83
2021/12/15 18:40:13;;;;;;;34.43;24.37;;;;;;;2.47;100.00;97082.06;4881410;29;20183;-86
2021/12/15 18:42:38;;;;;;;42.20;29.93;;;;;;;2.48;99.79;97076.91;4882013;29;20278;-84
2021/12/15 18:45:08;;;;;;;29.50;24.07;;;;;;;2.55;99.92;97080.03;4898561;29;20205;-82
2021/12/15 18:47:33;;;;;;;29.93;21.27;;;;;;;2.52;99.58;97088.69;4884688;29;20187;-85
2021/12/15 18:50:04;;;;;;;25.20;17.63;;;;;;;2.53;99.44;97084.41;4900848;29;20207;-82
2021/12/15 18:52:30;;;;;;;30.70;22.37;;;;;;;2.52;99.63;97078.44;4883301;29;20223;-82
2021/12/15 18:54:58;;;;;;;26.83;20.53;;;;;;;2.51;99.89;97084.47;4899444;29;20206;-85
2021/12/15 18:57:26;;;;;;;32.63;24.90;;;;;;;2.44;99.87;97083.03;4883933;29;20186;-86
2021/12/15 18:59:51;;;;;;;22.53;17.53;;;;;;;2.45;100.00;97081.31;4882398;29;20537;-85
2021/12/15 19:02:20;;;;;;;30.90;20.20;;;;;;;2.51;100.00;97084.47;4882192;29;20254;-80
2021/12/15 19:04:46;;;;;;;31.50;21.43;;;;;;;2.53;99.51;97085.22;4897388;29;20338;-83
2021/12/15 19:07:13;;;;;;;36.17;24.17;;;;;;;2.51;100.00;97079.34;4897415;29;20637;-84
2021/12/15 19:09:39;;;;;;;27.10;19.20;;;;;;;2.47;100.00;97090.63;4897848;29;20215;-84
2021/12/15 19:12:09;;;;;;;26.83;18.23;;;;;;;2.49;100.00;97088.00;4897383;29;20183;-83
2021/12/15 19:14:35;;;;;;;26.57;17.57;;;;;;;2.45;100.00;97104.38;4882095;29;20268;-82
2021/12/15 19:17:01;;;;;;;24.20;17.53;;;;;;;2.42;100.00;97099.38;4883379;29;20700;-85
2021/12/15 19:19:32;;;;;;;24.53;18.77;;;;;;;2.43;100.00;97099.31;4900953;29;20182;-84
2021/12/15 19:21:59;;;;;;;28.37;19.73;;;;;;;2.39;100.00;97102.91;4881799;29;20191;-84
2021/12/15 19:24:25;;;;;;;24.27;17.33;;;;;;;2.36;100.00;97108.13;4882570;29;20194;-85
2021/12/15 19:26:56;;;;;;;23.10;16.87;;;;;;;2.42;100.00;97113.03;4885279;29;20234;-87
2021/12/15 19:29:29;;;;;;;24.47;16.93;;;;;;;2.39;100.00;97107.22;4901598;29;20249;-86
2021/12/15 19:31:55;;;;;;;26.23;18.63;;;;;;;2.43;100.00;97113.88;4886408;29;20203;-86
2021/12/15 19:34:23;;;;;;;25.13;17.47;;;;;;;2.42;100.00;97113.03;4869369;29;20247;-87
2021/12/15 19:36:48;;;;;;;21.20;14.90;;;;;;;2.45;100.00;97112.91;4884008;29;20197;-86
2021/12/15 19:39:16;;;;;;;19.57;13.73;;;;;;;2.43;100.00;97113.88;4883729;29;20273;-86
2021/12/15 19:41:46;;;;;;;20.60;14.73;;;;;;;2.45;100.00;97109.50;4882562;29;20186;-85
2021/12/15 19:44:14;;;;;;;22.67;15.20;;;;;;;2.38;100.00;97110.63;4898016;29;20692;-84
2021/12/15 19:46:41;;;;;;;22.87;15.50;;;;;;;2.42;100.00;97112.19;4885231;29;20190;-87
2021/12/15 19:49:08;;;;;;;22.43;15.83;;;;;;;2.37;100.00;97116.66;4882179;29;20229;-87
2021/12/15 19:51:34;;;;;;;25.47;16.00;;;;;;;2.38;100.00;97114.03;4897937;29;20183;-86
2021/12/15 19:54:03;;;;;;;37.20;21.47;;;;;;;2.38;100.00;97114.03;4882264;29;20612;-85
2021/12/15 19:56:29;;;;;;;30.23;19.60;;;;;;;2.40;100.00;97112.28;4883318;29;20194;-84
2021/12/15 19:58:55;;;;;;;25.60;16.50;;;;;;;2.43;100.00;97116.44;4898814;29;20183;-85
2021/12/15 20:01:30;;;;;;;24.33;15.50;;;;;;;2.47;100.00;97112.84;4883056;29;20273;-85
2021/12/15 20:07:31;;;;;;;19.60;13.37;;;;;;;2.47;100.00;97113.72;4898700;29;20202;-85
2021/12/15 20:10:02;;;;;;;20.87;13.37;;;;;;;2.52;100.00;97116.91;4883819;29;20215;-84
2021/12/15 20:12:38;;;;;;;20.93;13.50;;;;;;;2.48;100.00;97114.53;4899144;29;20743;-84
2021/12/15 20:15:16;;;;;;;22.80;13.03;;;;;;;2.50;100.00;97121.28;4941551;23;20247;-84
2021/12/15 20:17:42;;;;;;;20.03;14.37;;;;;;;2.51;100.00;97119.53;4887725;29;20667;-87
2021/12/15 20:20:20;;;;;;;22.53;14.03;;;;;;;2.49;100.00;97123.91;4888570;29;20251;-84
2021/12/15 20:22:48;;;;;;;21.77;14.47;;;;;;;2.54;100.00;97129.66;4885036;29;20199;-82
2021/12/15 20:38:34;;;;;;;24.97;15.53;;;;;;;2.60;100.00;97149.13;4903136;23;20245;-84
2021/12/15 20:41:04;;;;;;;25.93;15.57;;;;;;;2.46;100.00;97142.78;4886734;29;20194;-86
2021/12/15 20:43:37;;;;;;;25.87;15.63;;;;;;;2.42;100.00;97148.94;4884635;29;20187;-85
2021/12/15 20:46:07;;;;;;;22.27;14.73;;;;;;;2.53;100.00;97151.91;4901847;29;20204;-84
2021/12/15 20:48:33;;;;;;;23.37;15.97;;;;;;;2.51;100.00;97151.16;4902443;29;20262;-84
2021/12/15 20:51:07;;;;;;;22.00;15.03;;;;;;;2.52;100.00;97150.25;4900840;29;20179;-85
2021/12/15 20:59:42;;;;;;;21.83;13.87;;;;;;;2.49;100.00;97160.63;4892728;29;20208;-81
2021/12/15 21:02:41;;;;;;;24.13;15.47;;;;;;;2.52;100.00;97155.38;4900058;29;20588;-83
2021/12/15 21:12:47;;;;;;;26.47;16.67;;;;;;;2.59;100.00;97165.41;4822382;29;20448;-87
2021/12/15 21:16:05;;;;;;;31.67;18.03;;;;;;;2.69;100.00;97166.72;4797017;29;20239;-87
2021/12/15 21:18:56;;;;;;;29.13;17.20;;;;;;;2.64;100.00;97160.91;4735948;30;20223;-87
2021/12/15 21:22:13;;;;;;;23.13;15.70;;;;;;;2.60;100.00;97164.50;4744693;30;20213;-87
2021/12/15 21:25:01;;;;;;;22.10;15.40;;;;;;;2.69;100.00;97167.53;4684948;30;20298;-85
2021/12/15 21:27:54;;;;;;;24.33;15.53;;;;;;;2.60;100.00;97160.22;4681782;30;20274;-86
2021/12/15 21:30:39;;;;;;;20.50;14.33;;;;;;;2.65;100.00;97166.00;4627881;31;20201;-87
2021/12/15 21:33:24;;;;;;;24.80;15.87;;;;;;;2.63;100.00;97165.22;4623571;30;20202;-87
2021/12/15 21:36:01;;;;;;;27.13;17.33;;;;;;;2.61;100.00;97167.00;4631594;30;20724;-86
2021/12/15 21:38:32;;;;;;;24.03;14.87;;;;;;;2.64;100.00;97173.72;4616448;31;20194;-86
2021/12/15 21:41:15;;;;;;;23.87;16.33;;;;;;;2.65;100.00;97171.13;4620997;31;20206;-85
2021/12/15 21:47:16;;;;;;;24.73;16.53;;;;;;;2.64;100.00;97171.16;4646932;30;20630;-84
2021/12/15 21:49:44;;;;;;;24.47;16.43;;;;;;;2.64;100.00;97160.91;4706835;30;20225;-85
2021/12/15 21:52:15;;;;;;;26.37;16.87;;;;;;;2.63;100.00;97164.38;4732286;30;20208;-87
2021/12/15 21:54:46;;;;;;;26.80;16.67;;;;;;;2.59;100.00;97168.81;4733575;30;20303;-85
2021/12/15 21:57:17;;;;;;;24.73;16.20;;;;;;;2.63;100.00;97167.78;4747877;30;20239;-85
2021/12/15 22:11:26;;;;;;;26.43;17.70;;;;;;;2.63;100.00;97174.63;4940218;23;20238;-86
2021/12/15 22:14:13;;;;;;;27.90;17.13;;;;;;;2.62;100.00;97181.50;4882579;29;20656;-85
2021/12/15 22:16:55;;;;;;;23.00;14.67;;;;;;;2.68;100.00;97177.88;4885663;29;20201;-86
2021/12/15 22:22:29;;;;;;;21.63;14.80;;;;;;;2.62;100.00;97180.66;4838598;29;20698;-85
2021/12/15 22:25:09;;;;;;;26.23;15.47;;;;;;;2.65;100.00;97175.41;4824565;29;20375;-84
2021/12/15 22:28:16;;;;;;;27.87;16.40;;;;;;;2.64;100.00;97176.31;4822468;29;20333;-85
2021/12/15 22:31:29;;;;;;;26.70;15.60;;;;;;;2.64;100.00;97172.00;4810960;29;20200;-84
2021/12/15 22:34:14;;;;;;;26.90;16.83;;;;;;;2.64;100.00;97177.13;4835503;29;20261;-84
2021/12/15 22:39:32;;;;;;;24.00;15.63;;;;;;;2.67;100.00;97181.34;4839142;29;20193;-84
2021/12/15 22:42:12;;;;;;;25.03;16.37;;;;;;;2.62;100.00;97176.38;4808670;29;20223;-83
2021/12/15 22:44:55;;;;;;;23.30;15.43;;;;;;;2.67;100.00;97176.19;4808549;29;20690;-82
2021/12/15 22:47:34;;;;;;;25.67;16.53;;;;;;;2.67;100.00;97177.03;4809244;29;20744;-86
2021/12/15 22:50:13;;;;;;;25.13;16.23;;;;;;;2.68;100.00;97175.31;4809662;29;20221;-86
2021/12/15 22:53:19;;;;;;;27.47;16.53;;;;;;;2.66;100.00;97179.66;4843935;29;20221;-87
2021/12/15 22:56:26;;;;;;;25.60;16.50;;;;;;;2.70;100.00;97179.47;4884025;29;20213;-86
2021/12/15 23:02:31;;;;;;;26.93;16.67;;;;;;;2.64;100.00;97181.44;4915405;29;20178;-86
2021/12/15 23:05:28;;;;;;;25.17;15.73;;;;;;;2.64;100.00;97182.25;4898724;29;20302;-86
2021/12/15 23:08:07;;;;;;;26.47;16.90;;;;;;;2.64;100.00;97186.56;4900571;29;20265;-87
2021/12/15 23:14:23;;;;;;;;;;;;;;;;;;;;;
2021/12/15 23:17:10;;;;;;;;;;;;;;;;;;;;;
2021/12/15 23:20:27;;;;;;;;;;;;;;;;;;;;;
2021/12/15 23:23:08;;;;;;;27.17;15.50;;;;;;;2.56;100.00;97181.72;4818909;29;20586;-88
2021/12/15 23:25:41;;;;;;;25.47;16.33;;;;;;;2.67;100.00;97179.59;4820204;29;20225;-86
2021/12/15 23:28:53;;;;;;;;;;;;;;;;;;;;;
2021/12/15 23:32:17;;;;;;;24.60;15.93;;;;;;;2.58;100.00;97174.00;4748272;30;20215;-87
2021/12/15 23:38:29;;;;;;;26.23;15.03;;;;;;;2.60;100.00;97174.75;4736610;30;20648;-88
2021/12/15 23:54:40;;;;;;;27.17;15.87;;;;;;;2.53;100.00;97157.03;4759918;29;20275;-86
